Time;durP1;ratioP1;P1;durP2;ratioP2;P2;SDS_P1;SDS_P2;PMS_P1;PMS_P2;Temp;Humidity;BMP_temperature;BMP_pressure;BME280_temperature;BME280_humidity;BME280_pressure;Samples;Min_cycle;Max_cycle;Signal;HPM_P1;HPM_P2
2023/05/06 00:02:03;;;;;;;19.55;16.05;;;14.60;99.90;;;;;;5013275;28;20174;-75
2023/05/06 00:04:29;;;;;;;22.70;18.10;;;14.50;99.90;;;;;;4995155;28;20301;-75
2023/05/06 00:06:56;;;;;;;19.83;17.60;;;14.50;99.90;;;;;;5012259;28;20170;-75
2023/05/06 00:09:23;;;;;;;19.67;16.27;;;14.50;99.90;;;;;;5012556;28;20194;-76
2023/05/06 00:11:49;;;;;;;21.63;17.60;;;14.50;99.90;;;;;;5013123;28;20553;-75
2023/05/06 00:14:15;;;;;;;21.83;16.90;;;14.40;99.90;;;;;;5027677;28;20174;-76
2023/05/06 00:16:41;;;;;;;18.83;16.48;;;14.50;99.90;;;;;;5027818;28;20177;-75
2023/05/06 00:19:07;;;;;;;21.00;17.20;;;14.40;99.90;;;;;;5011403;28;20562;-76
2023/05/06 00:21:33;;;;;;;20.37;17.30;;;14.40;99.90;;;;;;5002848;28;20195;-76
2023/05/06 00:23:58;;;;;;;18.67;16.43;;;14.40;99.90;;;;;;4993228;28;20206;-76
2023/05/06 00:26:24;;;;;;;21.60;18.50;;;14.40;99.90;;;;;;4991125;28;20170;-75
2023/05/06 00:28:50;;;;;;;21.77;18.53;;;14.40;99.90;;;;;;4975407;28;20252;-76
2023/05/06 00:31:15;;;;;;;20.67;17.37;;;14.40;99.90;;;;;;4991429;28;20174;-75
2023/05/06 00:33:43;;;;;;;19.47;17.37;;;14.40;99.90;;;;;;4959563;28;20671;-75
2023/05/06 00:36:08;;;;;;;18.05;15.80;;;14.40;99.90;;;;;;4974963;28;20175;-76
2023/05/06 00:38:34;;;;;;;20.00;17.90;;;14.40;99.90;;;;;;5008061;28;20679;-75
2023/05/06 00:41:00;;;;;;;22.70;17.48;;;14.40;99.90;;;;;;4991350;28;21196;-75
2023/05/06 00:43:26;;;;;;;24.85;19.20;;;14.40;99.90;;;;;;4991505;28;20265;-76
2023/05/06 00:45:53;;;;;;;23.40;18.03;;;14.40;99.90;;;;;;4975302;28;20183;-75
2023/05/06 00:48:18;;;;;;;23.35;19.33;;;14.30;99.90;;;;;;4974761;28;20179;-75
2023/05/06 00:50:44;;;;;;;20.57;18.37;;;14.30;99.90;;;;;;4974896;28;20222;-75
2023/05/06 00:53:10;;;;;;;23.00;17.83;;;14.30;99.90;;;;;;4999703;28;20179;-75
2023/05/06 00:55:37;;;;;;;23.33;19.48;;;14.30;99.90;;;;;;5015186;28;20686;-76
2023/05/06 00:58:04;;;;;;;23.15;18.90;;;14.30;99.90;;;;;;4975025;28;20197;-76
2023/05/06 01:00:29;;;;;;;22.67;18.20;;;14.30;99.90;;;;;;5007498;28;20190;-75
2023/05/06 01:02:55;;;;;;;21.97;17.50;;;14.20;99.90;;;;;;4990945;28;20718;-75
2023/05/06 01:06:21;;;;;;;20.20;16.75;;;14.20;99.90;;;;;;4985875;28;21002;-75
2023/05/06 01:09:03;;;;;;;16.38;14.65;;;14.20;99.90;;;;;;4990840;28;20553;-75
2023/05/06 01:11:36;;;;;;;18.33;16.20;;;14.20;99.90;;;;;;4987999;28;20645;-75
2023/05/06 01:14:12;;;;;;;19.88;17.17;;;14.20;99.90;;;;;;4970163;28;20241;-75
2023/05/06 01:16:40;;;;;;;23.38;18.83;;;14.10;99.90;;;;;;4974208;28;20178;-76
2023/05/06 01:19:13;;;;;;;22.40;18.17;;;14.10;99.90;;;;;;4965441;28;20266;-76
2023/05/06 01:21:42;;;;;;;23.58;17.20;;;14.00;99.90;;;;;;4970994;28;20179;-76
2023/05/06 01:24:08;;;;;;;25.00;18.95;;;14.00;99.90;;;;;;4990914;28;20206;-76
2023/05/06 01:26:34;;;;;;;21.27;16.50;;;14.00;99.90;;;;;;4990334;28;20555;-76
2023/05/06 01:29:01;;;;;;;19.60;16.25;;;14.00;99.90;;;;;;4974427;28;20210;-76
2023/05/06 01:31:36;;;;;;;19.35;16.90;;;14.00;99.90;;;;;;4997178;28;20270;-75
2023/05/06 01:34:19;;;;;;;21.05;16.55;;;14.00;99.90;;;;;;4990944;28;20178;-75
2023/05/06 01:37:02;;;;;;;17.17;15.18;;;14.00;99.90;;;;;;4990489;28;20273;-81
2023/05/06 01:39:31;;;;;;;20.13;17.27;;;14.00;99.90;;;;;;4975173;28;20195;-80
2023/05/06 01:41:58;;;;;;;19.80;16.65;;;14.00;99.90;;;;;;4990607;28;20282;-79
2023/05/06 01:44:27;;;;;;;19.15;16.30;;;14.00;99.90;;;;;;5003024;23;20576;-80
2023/05/06 01:46:55;;;;;;;23.63;17.75;;;14.00;99.90;;;;;;5016755;28;20185;-80
2023/05/06 01:49:22;;;;;;;19.75;16.58;;;13.90;99.90;;;;;;4994723;28;20182;-81
2023/05/06 01:51:49;;;;;;;19.77;17.55;;;14.00;99.90;;;;;;4997229;28;20183;-80
2023/05/06 01:54:15;;;;;;;21.35;18.33;;;13.90;99.90;;;;;;4994465;28;20210;-80
2023/05/06 01:56:41;;;;;;;18.42;15.77;;;14.00;99.90;;;;;;4994268;28;20185;-80
2023/05/06 01:59:07;;;;;;;19.20;15.65;;;13.90;99.90;;;;;;4992091;28;20214;-80
2023/05/06 02:01:33;;;;;;;19.00;14.87;;;13.90;99.90;;;;;;4992555;28;20267;-80
2023/05/06 02:03:59;;;;;;;21.13;17.43;;;13.90;99.90;;;;;;4994580;28;20213;-80
2023/05/06 02:06:24;;;;;;;20.00;17.20;;;13.80;99.90;;;;;;4995046;28;20202;-79
2023/05/06 02:08:50;;;;;;;19.30;17.27;;;13.80;99.90;;;;;;4992846;28;21160;-80
2023/05/06 02:11:20;;;;;;;19.90;17.50;;;13.80;99.90;;;;;;4998105;28;20612;-80
2023/05/06 02:13:48;;;;;;;21.40;16.35;;;13.80;99.90;;;;;;5008698;28;20202;-80
2023/05/06 02:16:14;;;;;;;18.38;15.95;;;13.80;99.90;;;;;;4974160;28;20179;-80
2023/05/06 02:18:40;;;;;;;18.88;16.30;;;13.80;99.90;;;;;;5006969;28;20185;-80
2023/05/06 02:21:08;;;;;;;20.55;16.88;;;13.70;99.90;;;;;;5004268;28;20206;-79
2023/05/06 02:23:34;;;;;;;20.17;16.38;;;13.80;99.90;;;;;;5006856;28;20255;-80
2023/05/06 02:25:59;;;;;;;20.03;18.00;;;13.80;99.90;;;;;;5012921;28;20166;-79
2023/05/06 02:28:25;;;;;;;18.30;16.40;;;13.70;99.90;;;;;;5015211;28;20170;-79
2023/05/06 02:30:55;;;;;;;17.33;15.10;;;13.70;99.90;;;;;;5015934;28;20648;-79
2023/05/06 02:33:21;;;;;;;20.40;16.95;;;13.70;99.90;;;;;;5019434;28;20190;-78
2023/05/06 02:35:46;;;;;;;19.07;17.00;;;13.70;99.90;;;;;;5015131;28;20194;-78
2023/05/06 02:38:12;;;;;;;17.87;16.00;;;13.70;99.90;;;;;;5008261;28;20593;-78
2023/05/06 02:40:38;;;;;;;17.20;14.97;;;13.80;99.90;;;;;;5019181;28;20178;-79
2023/05/06 02:43:03;;;;;;;16.63;14.90;;;13.70;99.90;;;;;;4999439;28;20174;-79
2023/05/06 02:45:29;;;;;;;18.57;16.33;;;13.70;99.90;;;;;;5014630;28;20221;-79
2023/05/06 02:47:55;;;;;;;21.73;14.57;;;13.70;99.90;;;;;;4997657;28;20182;-79
2023/05/06 02:50:20;;;;;;;16.37;14.67;;;13.70;99.90;;;;;;5016141;28;20276;-79
2023/05/06 02:52:46;;;;;;;15.90;14.20;;;13.70;99.90;;;;;;5013966;28;20178;-79
2023/05/06 02:55:12;;;;;;;15.90;14.20;;;13.70;99.90;;;;;;5011919;28;20237;-79
2023/05/06 02:57:37;;;;;;;17.43;13.97;;;13.60;99.90;;;;;;5011797;28;20186;-79
2023/05/06 03:00:05;;;;;;;14.30;12.90;;;13.60;99.90;;;;;;5013454;28;20235;-79
2023/05/06 03:02:31;;;;;;;13.60;12.23;;;13.60;99.90;;;;;;5002334;28;20247;-78
2023/05/06 03:04:56;;;;;;;17.03;14.33;;;13.50;99.90;;;;;;5012362;28;20297;-78
2023/05/06 03:07:22;;;;;;;16.40;14.07;;;13.50;99.90;;;;;;5013070;28;20180;-78
2023/05/06 03:09:48;;;;;;;14.27;12.87;;;13.50;99.90;;;;;;4998590;28;20705;-78
2023/05/06 03:12:14;;;;;;;13.13;11.80;;;13.50;99.90;;;;;;5004423;28;20622;-79
2023/05/06 03:14:39;;;;;;;14.83;13.23;;;13.50;99.90;;;;;;5008410;28;20752;-78
2023/05/06 03:17:05;;;;;;;13.27;11.97;;;13.40;99.90;;;;;;5010626;28;20269;-78
2023/05/06 03:19:34;;;;;;;13.68;12.38;;;13.40;99.90;;;;;;5008673;28;20268;-79
2023/05/06 03:22:00;;;;;;;12.75;11.48;;;13.40;99.90;;;;;;4986397;28;20171;-79
2023/05/06 03:24:27;;;;;;;14.77;13.27;;;13.40;99.90;;;;;;4977133;28;20202;-78
2023/05/06 03:26:53;;;;;;;17.65;12.15;;;13.40;99.90;;;;;;4992436;28;20328;-79
2023/05/06 03:29:19;;;;;;;14.23;12.73;;;13.40;99.90;;;;;;4993299;28;20247;-79
2023/05/06 03:31:49;;;;;;;14.98;13.00;;;13.40;99.90;;;;;;4992707;28;20179;-79
2023/05/06 03:34:16;;;;;;;14.20;12.13;;;13.40;99.90;;;;;;4993657;28;20199;-78
2023/05/06 03:36:44;;;;;;;13.55;12.15;;;13.30;99.90;;;;;;4992491;28;20204;-79
2023/05/06 03:39:10;;;;;;;13.50;11.93;;;13.30;99.90;;;;;;4992887;28;20179;-78
2023/05/06 03:41:36;;;;;;;15.52;12.40;;;13.40;99.90;;;;;;4991614;28;20183;-78
2023/05/06 03:44:02;;;;;;;13.23;11.73;;;13.40;99.90;;;;;;4992642;28;20707;-77
2023/05/06 03:46:28;;;;;;;13.53;12.23;;;13.40;99.90;;;;;;4987301;28;20621;-78
2023/05/06 03:48:55;;;;;;;12.90;11.60;;;13.30;99.90;;;;;;5013715;28;20206;-78
2023/05/06 03:51:21;;;;;;;12.40;11.20;;;13.30;99.90;;;;;;4969580;28;20176;-79
2023/05/06 03:53:47;;;;;;;13.27;11.97;;;13.30;99.90;;;;;;5012626;28;20202;-79
2023/05/06 03:56:13;;;;;;;14.20;12.30;;;13.30;99.90;;;;;;5018208;28;20585;-78
2023/05/06 03:58:39;;;;;;;13.93;12.47;;;13.30;99.90;;;;;;5012435;28;20185;-78
2023/05/06 04:01:07;;;;;;;14.52;12.25;;;13.30;99.90;;;;;;4981964;28;20591;-78
2023/05/06 04:03:33;;;;;;;14.03;12.37;;;13.30;99.90;;;;;;5003848;28;20682;-78
2023/05/06 04:06:00;;;;;;;14.98;13.20;;;13.20;99.90;;;;;;5011796;28;20261;-78
2023/05/06 04:08:26;;;;;;;14.75;13.35;;;13.20;99.90;;;;;;5004222;28;20197;-78
2023/05/06 04:10:54;;;;;;;14.20;12.27;;;13.20;99.90;;;;;;5008707;28;20210;-78
2023/05/06 04:13:29;;;;;;;14.07;12.68;;;13.20;99.90;;;;;;4976601;28;20182;-78
2023/05/06 04:15:58;;;;;;;15.50;13.80;;;13.20;99.90;;;;;;4974461;28;20618;-79
2023/05/06 04:18:30;;;;;;;13.95;12.57;;;13.20;99.90;;;;;;5011784;28;20185;-79
2023/05/06 04:21:04;;;;;;;14.18;12.68;;;13.20;99.90;;;;;;5000372;28;20175;-78
2023/05/06 04:23:33;;;;;;;13.68;12.30;;;13.30;99.90;;;;;;5005319;28;20205;-78
2023/05/06 04:26:00;;;;;;;13.82;12.43;;;13.30;99.90;;;;;;4968163;28;20172;-78
2023/05/06 04:28:29;;;;;;;13.07;11.60;;;13.30;99.90;;;;;;5019975;28;20190;-78
2023/05/06 04:30:55;;;;;;;12.93;11.63;;;13.30;99.90;;;;;;4997032;28;20179;-78
2023/05/06 04:33:28;;;;;;;15.45;12.70;;;13.30;99.90;;;;;;4997895;28;20631;-78
2023/05/06 04:35:58;;;;;;;12.55;11.00;;;13.30;99.90;;;;;;5011438;28;20166;-78
2023/05/06 04:38:29;;;;;;;13.70;11.90;;;13.30;99.90;;;;;;5012019;28;20196;-79
2023/05/06 04:40:55;;;;;;;12.40;11.13;;;13.30;99.90;;;;;;5013098;28;20216;-78
2023/05/06 04:43:21;;;;;;;14.45;12.30;;;13.20;99.90;;;;;;5011031;28;20260;-78
2023/05/06 04:45:50;;;;;;;17.83;15.23;;;13.20;99.90;;;;;;4979266;28;20296;-78
2023/05/06 04:48:21;;;;;;;13.85;12.35;;;13.10;99.90;;;;;;5011184;28;20170;-78
2023/05/06 04:50:49;;;;;;;14.32;12.15;;;13.10;99.90;;;;;;5012753;28;20321;-78
2023/05/06 04:53:16;;;;;;;13.80;12.40;;;13.20;99.90;;;;;;5014979;28;20619;-78
2023/05/06 04:55:42;;;;;;;13.82;11.80;;;13.30;99.90;;;;;;5013993;28;20197;-78
2023/05/06 04:58:08;;;;;;;18.73;14.45;;;13.30;99.90;;;;;;4978312;28;20639;-78
2023/05/06 05:00:34;;;;;;;14.48;12.98;;;13.30;99.90;;;;;;4994875;28;20186;-78
2023/05/06 05:03:02;;;;;;;15.25;13.63;;;13.40;99.90;;;;;;4994765;28;20178;-78
2023/05/06 05:05:28;;;;;;;12.75;11.45;;;13.40;99.90;;;;;;5011340;28;20194;-78
2023/05/06 05:07:55;;;;;;;13.95;12.50;;;13.40;99.90;;;;;;5013696;28;20170;-78
2023/05/06 05:10:22;;;;;;;14.45;12.65;;;13.50;99.90;;;;;;5004174;28;20651;-78
2023/05/06 05:12:49;;;;;;;14.75;13.25;;;13.60;99.90;;;;;;4974260;28;20549;-78
2023/05/06 05:15:15;;;;;;;17.80;13.83;;;13.60;99.90;;;;;;5010885;28;20194;-78
2023/05/06 05:17:41;;;;;;;11.50;10.27;;;13.70;99.90;;;;;;5011301;28;20212;-78
2023/05/06 05:20:07;;;;;;;15.75;11.73;;;13.70;99.90;;;;;;5011224;28;20217;-78
2023/05/06 05:22:33;;;;;;;15.43;13.68;;;13.80;99.90;;;;;;4995853;28;20175;-79
2023/05/06 05:24:59;;;;;;;17.83;12.20;;;13.80;99.90;;;;;;4959145;28;20250;-78
2023/05/06 05:27:26;;;;;;;16.00;13.45;;;13.90;99.90;;;;;;4991204;28;20179;-78
2023/05/06 05:29:53;;;;;;;16.65;14.85;;;14.00;99.90;;;;;;4959348;28;20696;-78
2023/05/06 05:32:20;;;;;;;14.70;13.17;;;14.00;99.90;;;;;;4974576;28;20198;-78
2023/05/06 05:34:46;;;;;;;16.67;14.98;;;14.10;99.90;;;;;;4991447;28;20614;-78
2023/05/06 05:37:12;;;;;;;14.73;13.40;;;14.10;99.90;;;;;;4990770;28;20186;-78
2023/05/06 05:39:38;;;;;;;16.90;15.10;;;14.20;99.90;;;;;;4992123;28;20689;-78
2023/05/06 05:42:06;;;;;;;15.02;12.77;;;14.30;99.90;;;;;;4991055;28;20279;-78
2023/05/06 05:44:34;;;;;;;17.90;13.13;;;14.30;99.90;;;;;;4997094;28;20310;-78
2023/05/06 05:47:03;;;;;;;14.27;11.73;;;14.70;99.90;;;;;;4997795;28;20586;-78
2023/05/06 05:49:30;;;;;;;15.60;13.30;;;15.20;99.90;;;;;;5011083;28;21453;-77
2023/05/06 05:51:56;;;;;;;14.23;12.73;;;15.80;99.90;;;;;;4975988;28;20588;-78
2023/05/06 05:54:22;;;;;;;14.17;12.77;;;16.50;99.90;;;;;;4985106;28;20624;-79
2023/05/06 05:56:49;;;;;;;13.07;11.67;;;17.20;99.90;;;;;;4997701;28;21106;-79
2023/05/06 05:59:15;;;;;;;11.83;10.73;;;17.90;99.90;;;;;;5010651;28;20178;-78
2023/05/06 06:01:42;;;;;;;11.83;10.73;;;18.50;99.90;;;;;;4978490;28;20575;-77
2023/05/06 06:04:08;;;;;;;11.23;10.03;;;19.00;99.90;;;;;;4990545;28;20645;-78
2023/05/06 06:06:34;;;;;;;11.03;10.03;;;19.30;99.90;;;;;;4994042;28;21016;-78
2023/05/06 06:09:00;;;;;;;10.30;9.30;;;19.80;99.90;;;;;;5007033;28;21018;-79
2023/05/06 06:11:28;;;;;;;10.87;9.90;;;20.20;99.90;;;;;;5010885;28;20716;-79
2023/05/06 06:13:54;;;;;;;9.53;8.70;;;20.60;99.90;;;;;;5007562;28;20609;-79
2023/05/06 06:16:21;;;;;;;9.90;9.00;;;20.90;99.90;;;;;;5007072;28;20586;-80
2023/05/06 06:18:47;;;;;;;11.17;9.10;;;21.40;99.90;;;;;;4991000;28;20608;-79
2023/05/06 06:21:13;;;;;;;8.93;8.10;;;22.00;99.90;;;;;;4988224;28;20671;-80
2023/05/06 06:23:39;;;;;;;8.43;7.63;;;22.60;99.90;;;;;;4957506;28;20624;-80
2023/05/06 06:26:05;;;;;;;6.77;6.17;;;23.30;99.90;;;;;;4954611;28;20579;-80
2023/05/06 06:28:32;;;;;;;6.90;6.20;;;24.00;99.90;;;;;;4971206;28;20637;-79
2023/05/06 06:30:58;;;;;;;8.30;6.90;;;24.80;99.90;;;;;;4970772;28;20983;-79
2023/05/06 06:33:23;;;;;;;8.50;6.40;;;25.60;99.90;;;;;;4955221;28;20653;-80
2023/05/06 06:35:49;;;;;;;5.93;5.43;;;26.40;99.90;;;;;;4983814;28;20213;-80
2023/05/06 06:38:15;;;;;;;6.93;5.20;;;26.90;99.90;;;;;;4991668;28;20574;-80
2023/05/06 06:40:41;;;;;;;5.60;5.10;;;27.50;99.90;;;;;;4990646;28;20279;-79
2023/05/06 06:43:09;;;;;;;5.37;4.90;;;27.80;99.90;;;;;;4989036;28;20195;-79
2023/05/06 06:46:04;;;;;;;5.30;4.80;;;28.00;99.90;;;;;;5011006;28;20601;-80
2023/05/06 06:48:30;;;;;;;5.27;4.80;;;28.50;99.90;;;;;;5010144;28;20973;-80
2023/05/06 06:50:55;;;;;;;3.93;3.53;;;28.50;99.90;;;;;;5003719;28;20694;-80
2023/05/06 06:53:21;;;;;;;4.93;4.40;;;28.70;99.90;;;;;;4986236;28;20179;-80
2023/05/06 06:55:47;;;;;;;4.27;3.77;;;29.10;99.90;;;;;;5006625;28;20700;-80
2023/05/06 06:58:13;;;;;;;2.80;2.50;;;29.40;99.90;;;;;;5012310;28;20577;-80
2023/05/06 07:00:39;;;;;;;3.37;3.07;;;29.90;99.90;;;;;;5011341;28;20182;-80
2023/05/06 07:03:04;;;;;;;3.00;2.63;;;30.40;99.90;;;;;;5010314;28;20665;-80
2023/05/06 07:05:30;;;;;;;3.63;3.00;;;30.90;99.90;;;;;;5009691;28;20198;-80
2023/05/06 07:07:56;;;;;;;3.90;3.50;;;31.40;99.90;;;;;;5009809;28;20915;-80
2023/05/06 07:10:22;;;;;;;2.93;2.50;;;31.90;99.90;;;;;;5011668;28;20265;-79
2023/05/06 07:12:47;;;;;;;3.00;2.50;;;32.40;99.90;;;;;;5011906;28;20653;-79
2023/05/06 07:15:13;;;;;;;2.13;1.93;;;32.60;99.90;;;;;;5009480;28;20607;-84
2023/05/06 07:17:39;;;;;;;2.67;2.10;;;32.70;99.90;;;;;;5012606;28;20181;-86
2023/05/06 07:20:05;;;;;;;3.83;2.70;;;32.90;99.90;;;;;;5014368;28;20644;-86
2023/05/06 07:22:31;;;;;;;2.60;2.40;;;33.10;99.90;;;;;;4997040;28;20190;-86
2023/05/06 07:24:57;;;;;;;2.83;2.40;;;33.40;99.90;;;;;;4993643;28;20652;-84
2023/05/06 07:27:23;;;;;;;2.93;2.37;;;33.70;99.90;;;;;;4993960;28;20198;-86
2023/05/06 07:29:49;;;;;;;2.30;1.90;;;34.10;99.90;;;;;;4995486;28;20181;-85
2023/05/06 07:32:15;;;;;;;2.57;1.93;;;34.40;99.90;;;;;;4993858;28;20574;-85
2023/05/06 07:34:41;;;;;;;2.10;1.90;;;34.70;99.90;;;;;;4999512;28;20640;-85
2023/05/06 07:37:07;;;;;;;2.87;2.10;;;35.10;99.90;;;;;;4995645;28;21174;-78
2023/05/06 07:39:33;;;;;;;3.10;2.03;;;35.30;99.00;;;;;;4995248;28;20641;-79
2023/05/06 07:41:58;;;;;;;2.53;1.93;;;35.60;98.80;;;;;;4998925;28;20183;-79
2023/05/06 07:44:24;;;;;;;4.03;1.83;;;35.90;98.10;;;;;;4998611;28;20629;-79
2023/05/06 07:46:50;;;;;;;3.63;1.60;;;36.30;97.20;;;;;;4999789;28;20179;-79
2023/05/06 07:49:16;;;;;;;2.60;2.10;;;36.60;96.10;;;;;;4965161;28;20201;-79
2023/05/06 07:51:42;;;;;;;1.90;1.00;;;36.90;94.80;;;;;;5014457;28;20178;-78
2023/05/06 07:54:08;;;;;;;1.93;1.00;;;37.20;93.60;;;;;;5012961;28;20194;-78
2023/05/06 07:56:33;;;;;;;1.70;0.90;;;37.50;91.90;;;;;;5011747;28;21125;-79
2023/05/06 07:58:59;;;;;;;1.80;1.23;;;37.60;90.30;;;;;;5005670;28;20792;-86
2023/05/06 08:01:26;;;;;;;2.30;1.20;;;37.50;84.40;;;;;;5006087;28;20177;-87
2023/05/06 08:03:51;;;;;;;2.67;1.17;;;37.30;82.80;;;;;;5002462;28;20210;-87
2023/05/06 08:06:17;;;;;;;2.40;1.30;;;37.20;81.60;;;;;;5012786;28;20602;-86
2023/05/06 08:08:43;;;;;;;2.60;1.53;;;36.90;81.70;;;;;;5004140;28;20178;-86
2023/05/06 08:11:08;;;;;;;3.20;1.23;;;37.10;82.40;;;;;;5015415;28;20245;-86
2023/05/06 08:13:34;;;;;;;1.67;1.07;;;37.20;81.40;;;;;;5016224;28;20170;-86
2023/05/06 08:16:01;;;;;;;1.90;1.10;;;37.40;80.60;;;;;;5039663;22;20249;-77
2023/05/06 08:18:27;;;;;;;2.17;0.97;;;37.50;79.10;;;;;;5025022;28;20175;-77
2023/05/06 08:20:52;;;;;;;2.03;0.77;;;37.90;78.30;;;;;;5024331;28;21146;-77
2023/05/06 08:23:18;;;;;;;2.80;0.97;;;38.10;77.00;;;;;;5002958;28;20611;-77
2023/05/06 08:25:45;;;;;;;2.27;0.97;;;38.20;75.60;;;;;;5024671;28;20292;-77
2023/05/06 08:28:11;;;;;;;1.90;0.73;;;38.10;70.40;;;;;;5028506;28;20602;-77
2023/05/06 08:30:36;;;;;;;1.40;0.60;;;38.00;69.10;;;;;;5023452;28;20740;-77
2023/05/06 08:33:02;;;;;;;1.63;0.80;;;37.90;68.20;;;;;;5027708;28;20170;-77
2023/05/06 08:35:28;;;;;;;2.13;0.90;;;37.90;67.20;;;;;;5022335;28;20773;-77
2023/05/06 08:37:53;;;;;;;2.60;0.97;;;37.40;56.80;;;;;;5002514;28;20707;-77
2023/05/06 08:40:21;;;;;;;1.50;0.70;;;37.10;59.90;;;;;;5030060;28;20177;-77
2023/05/06 08:42:48;;;;;;;3.33;0.90;;;37.00;61.00;;;;;;5026693;28;20182;-77
2023/05/06 08:45:16;;;;;;;1.60;0.60;;;36.80;60.50;;;;;;5022199;28;20973;-77
2023/05/06 08:47:42;;;;;;;2.40;0.70;;;36.90;61.80;;;;;;5010436;28;20589;-77
2023/05/06 08:50:11;;;;;;;2.00;0.67;;;37.10;61.70;;;;;;5013207;28;20596;-77
2023/05/06 08:52:38;;;;;;;2.23;0.80;;;37.20;61.20;;;;;;5011445;28;20174;-77
2023/05/06 08:55:04;;;;;;;4.67;0.80;;;37.50;61.80;;;;;;5012456;28;21220;-78
2023/05/06 08:57:31;;;;;;;1.90;0.70;;;37.70;62.20;;;;;;5010252;28;20669;-77
2023/05/06 08:59:57;;;;;;;1.80;0.73;;;38.00;62.60;;;;;;5020507;28;20592;-77
2023/05/06 09:02:23;;;;;;;2.67;0.80;;;38.40;62.70;;;;;;5019091;28;20688;-77
2023/05/06 09:04:51;;;;;;;1.50;0.87;;;38.40;58.70;;;;;;5018698;28;20201;-77
2023/05/06 09:07:19;;;;;;;1.70;0.80;;;37.90;56.20;;;;;;5021931;28;20623;-76
2023/05/06 09:09:45;;;;;;;3.53;0.70;;;37.50;56.60;;;;;;5014520;28;20598;-79
2023/05/06 09:12:12;;;;;;;2.13;0.97;;;37.50;56.70;;;;;;5022187;28;20600;-77
2023/05/06 09:14:38;;;;;;;1.50;0.70;;;37.30;55.90;;;;;;5024190;28;20274;-77
2023/05/06 09:17:04;;;;;;;4.60;1.23;;;37.20;56.70;;;;;;5031927;28;20577;-77
2023/05/06 09:19:30;;;;;;;1.80;0.80;;;37.40;56.60;;;;;;5031408;28;20583;-77
2023/05/06 09:21:56;;;;;;;1.50;0.60;;;37.20;54.60;;;;;;5018579;28;20643;-77
2023/05/06 09:24:22;;;;;;;2.00;0.77;;;36.90;54.30;;;;;;5012112;28;20356;-77
2023/05/06 09:26:54;;;;;;;1.50;0.70;;;36.60;54.30;;;;;;5011386;28;20577;-76
2023/05/06 09:29:20;;;;;;;1.83;0.70;;;36.50;54.50;;;;;;5012377;28;20577;-77
2023/05/06 09:31:47;;;;;;;1.30;0.60;;;36.60;53.90;;;;;;5011641;28;20967;-77
2023/05/06 09:34:14;;;;;;;2.00;0.80;;;36.60;54.90;;;;;;5012367;28;20605;-77
2023/05/06 09:36:40;;;;;;;2.07;1.20;;;36.70;55.70;;;;;;5011926;28;20577;-77
2023/05/06 09:39:06;;;;;;;1.50;0.60;;;36.80;55.50;;;;;;5010478;28;20620;-77
2023/05/06 09:41:32;;;;;;;1.80;0.80;;;36.80;54.80;;;;;;5010633;28;21170;-77
2023/05/06 09:43:58;;;;;;;1.20;0.50;;;36.60;54.50;;;;;;5010474;28;20211;-77
2023/05/06 09:46:26;;;;;;;1.30;0.50;;;36.60;55.00;;;;;;5010252;28;20209;-77
2023/05/06 09:48:53;;;;;;;1.30;0.60;;;36.70;55.20;;;;;;5011638;28;20656;-77
2023/05/06 09:51:20;;;;;;;2.90;0.80;;;36.90;55.50;;;;;;5012192;28;20648;-77
2023/05/06 09:53:46;;;;;;;1.50;0.60;;;37.10;55.20;;;;;;5022736;28;20977;-76
2023/05/06 09:56:13;;;;;;;1.70;0.67;;;37.40;54.70;;;;;;5031008;28;20611;-77
2023/05/06 09:58:39;;;;;;;1.70;0.70;;;37.50;55.00;;;;;;5013035;28;20592;-74
2023/05/06 10:01:07;;;;;;;1.70;0.67;;;37.70;54.70;;;;;;5031232;28;20635;-77
2023/05/06 10:03:34;;;;;;;1.60;0.60;;;37.40;52.80;;;;;;5029650;28;20620;-76
2023/05/06 10:06:01;;;;;;;2.27;0.90;;;37.20;52.80;;;;;;5016243;28;20629;-76
2023/05/06 10:08:28;;;;;;;2.00;0.70;;;37.20;53.00;;;;;;5020794;28;20589;-77
2023/05/06 10:10:54;;;;;;;1.57;0.60;;;37.20;53.10;;;;;;5022824;28;20680;-77
2023/05/06 10:13:21;;;;;;;1.40;0.60;;;37.30;53.30;;;;;;5026121;28;20588;-77
2023/05/06 10:15:48;;;;;;;2.60;0.70;;;37.30;52.90;;;;;;5009415;28;20678;-76
2023/05/06 10:18:16;;;;;;;2.10;0.70;;;37.30;52.90;;;;;;5010218;28;20586;-76
2023/05/06 10:20:43;;;;;;;2.70;0.70;;;37.30;51.80;;;;;;5009339;28;20592;-77
2023/05/06 10:23:12;;;;;;;1.83;0.70;;;37.20;52.30;;;;;;5009696;28;20589;-77
2023/05/06 10:25:44;;;;;;;1.70;0.73;;;37.20;52.10;;;;;;5010465;28;20613;-76
2023/05/06 10:28:11;;;;;;;1.40;0.60;;;37.20;52.40;;;;;;5010229;28;20585;-76
2023/05/06 10:30:38;;;;;;;1.57;0.80;;;37.20;52.20;;;;;;5009589;28;20739;-75
2023/05/06 10:33:06;;;;;;;1.50;0.60;;;37.10;52.00;;;;;;5009673;28;21198;-76
2023/05/06 10:35:35;;;;;;;1.40;0.60;;;37.10;51.60;;;;;;5010002;28;20682;-76
2023/05/06 10:38:03;;;;;;;2.30;0.70;;;36.70;50.30;;;;;;5010849;28;20586;-76
2023/05/06 10:40:30;;;;;;;1.50;0.70;;;35.90;49.90;;;;;;5009874;28;20597;-76
2023/05/06 10:43:26;;;;;;;1.93;0.83;;;35.30;50.00;;;;;;5009118;28;20597;-76
2023/05/06 10:46:11;;;;;;;1.50;0.60;;;34.70;49.50;;;;;;5006975;28;20695;-76
2023/05/06 10:48:58;;;;;;;1.50;0.60;;;34.10;49.70;;;;;;5013365;28;20642;-76
2023/05/06 10:51:27;;;;;;;2.33;0.70;;;33.50;50.40;;;;;;5012434;28;20599;-77
2023/05/06 10:54:09;;;;;;;2.03;0.70;;;32.90;50.20;;;;;;5013168;28;20574;-77
2023/05/06 10:56:39;;;;;;;2.57;0.90;;;32.20;50.40;;;;;;4994957;28;20632;-76
2023/05/06 10:59:10;;;;;;;3.27;0.80;;;31.80;51.90;;;;;;4977410;28;20629;-76
2023/05/06 11:01:38;;;;;;;2.00;0.80;;;31.70;53.30;;;;;;4993954;28;20673;-77
2023/05/06 11:04:09;;;;;;;2.57;0.60;;;31.70;54.20;;;;;;5002687;28;20686;-76
2023/05/06 11:06:46;;;;;;;1.77;0.77;;;31.80;54.30;;;;;;4995196;28;20576;-76
2023/05/06 11:09:20;;;;;;;1.77;0.80;;;31.90;53.90;;;;;;4997285;28;20619;-77
2023/05/06 11:12:05;;;;;;;1.80;0.60;;;31.60;53.00;;;;;;4995201;28;20595;-76
2023/05/06 11:14:37;;;;;;;2.00;0.60;;;31.50;52.90;;;;;;4977222;28;20627;-76
2023/05/06 11:17:05;;;;;;;1.93;0.57;;;31.40;53.60;;;;;;4977331;28;20593;-76
2023/05/06 11:19:33;;;;;;;4.37;0.60;;;31.30;53.40;;;;;;4994497;28;20601;-76
2023/05/06 11:22:01;;;;;;;1.83;0.70;;;31.20;53.70;;;;;;5013603;28;20597;-77
2023/05/06 11:24:28;;;;;;;1.87;0.70;;;31.20;54.80;;;;;;5014048;28;20635;-77
2023/05/06 11:26:58;;;;;;;1.60;0.60;;;31.30;54.40;;;;;;5021715;28;20591;-77
2023/05/06 11:29:25;;;;;;;2.57;0.70;;;31.50;55.00;;;;;;5033391;28;20582;-77
2023/05/06 11:31:52;;;;;;;2.67;0.70;;;31.80;55.30;;;;;;5003716;28;20603;-77
2023/05/06 11:34:27;;;;;;;1.90;0.70;;;32.10;55.40;;;;;;5015630;28;20702;-77
2023/05/06 11:37:02;;;;;;;1.60;0.80;;;32.40;55.30;;;;;;4995639;28;21198;-76
2023/05/06 11:39:30;;;;;;;1.80;0.60;;;32.60;54.10;;;;;;5014156;28;20572;-77
2023/05/06 11:42:01;;;;;;;2.13;0.63;;;32.70;54.20;;;;;;4995872;28;20653;-76
2023/05/06 11:44:31;;;;;;;1.83;0.50;;;32.70;53.50;;;;;;5025125;28;20660;-75
2023/05/06 11:46:58;;;;;;;2.03;0.90;;;32.50;53.40;;;;;;5027165;28;20596;-76
2023/05/06 11:49:25;;;;;;;2.20;0.80;;;32.50;53.00;;;;;;5014067;28;20572;-76
2023/05/06 11:51:51;;;;;;;3.60;0.80;;;32.40;52.50;;;;;;5012460;28;20579;-75
2023/05/06 11:54:21;;;;;;;2.53;0.87;;;32.20;52.60;;;;;;5011770;28;20922;-75
2023/05/06 11:56:49;;;;;;;1.77;0.67;;;31.90;52.50;;;;;;5013561;28;20590;-76
2023/05/06 11:59:15;;;;;;;2.03;0.63;;;31.70;52.70;;;;;;5013208;28;20924;-76
2023/05/06 12:01:42;;;;;;;2.23;0.70;;;31.50;52.90;;;;;;5012471;28;20608;-75
2023/05/06 12:04:09;;;;;;;2.90;0.60;;;31.10;52.20;;;;;;5012052;28;20731;-75
2023/05/06 12:06:35;;;;;;;1.83;1.13;;;30.60;52.20;;;;;;5012186;28;20588;-75
2023/05/06 12:09:04;;;;;;;1.73;0.60;;;30.10;52.40;;;;;;5012274;28;20577;-75
2023/05/06 12:11:29;;;;;;;2.53;0.60;;;29.90;53.10;;;;;;5011570;28;20206;-76
2023/05/06 12:13:55;;;;;;;2.50;0.70;;;29.80;53.40;;;;;;5012246;28;20699;-75
2023/05/06 12:16:22;;;;;;;1.87;1.03;;;29.80;53.40;;;;;;5012440;28;20620;-76
2023/05/06 12:18:48;;;;;;;2.67;0.67;;;29.70;53.40;;;;;;5012129;28;20586;-76
2023/05/06 12:21:21;;;;;;;1.87;0.60;;;29.70;53.80;;;;;;5015485;28;20632;-75
2023/05/06 12:23:55;;;;;;;2.67;0.73;;;29.70;53.70;;;;;;4993764;28;20716;-75
2023/05/06 12:26:21;;;;;;;3.50;1.13;;;29.60;53.00;;;;;;5007931;28;20657;-75
2023/05/06 12:29:04;;;;;;;2.13;0.60;;;29.50;54.00;;;;;;4993888;28;20574;-76
2023/05/06 12:31:30;;;;;;;1.60;0.70;;;29.50;53.70;;;;;;4992927;28;20661;-76
2023/05/06 12:33:55;;;;;;;2.80;0.90;;;29.40;54.10;;;;;;4993579;28;20999;-75
2023/05/06 12:36:21;;;;;;;2.13;0.77;;;29.30;54.30;;;;;;4993875;28;20204;-76
2023/05/06 12:38:52;;;;;;;2.13;0.70;;;29.40;54.10;;;;;;4975516;28;20701;-76
2023/05/06 12:41:19;;;;;;;1.60;0.70;;;29.30;54.20;;;;;;4993711;28;20248;-76